IE-0036 weather

Spollens Airstrip
Tullamore, County Offaly, Ireland

Public forecast

Using degrees Celsius for public forecast. Weather courtesy of forecast.io.

Closest aviation weather report (METAR) to Spollens Airstrip

Closest report is Casement Air Base, 38.7 nm (71.7 km) E. Retrieved 2020/07/16 04:00 UTC (43 minutes ago):

EIME 160400Z 26011KT 9999 -DZ BKN007 BKN010 14/13 Q1021

Closest aviation forecast (TAF) to Spollens Airstrip

Closest forecast is Dublin Airport, 45.8 nm (84.9 km) E. Retrieved 2020-07-16 00:10 UTC (5 hours ago):

TAF EIDW 152300Z 1600/1624 27010KT 9999 SCT018 BKN020 TEMPO 1600/1611 BKN012 PROB40 TEMPO 1606/1609 BKN008